Time;durP1;ratioP1;P1;durP2;ratioP2;P2;SDS_P1;SDS_P2;PMS_P1;PMS_P2;Temp;Humidity;BMP_temperature;BMP_pressure;BME280_temperature;BME280_humidity;BME280_pressure;Samples;Min_cycle;Max_cycle;Signal;HPM_P1;HPM_P2
2023/03/09 00:01:49;;;;;;;70.68;50.08;;;15.70;55.20;;;;;;4991646;28;92061;-75
2023/03/09 00:04:16;;;;;;;70.28;50.45;;;15.70;54.90;;;;;;4972206;28;85417;-75
2023/03/09 00:06:43;;;;;;;71.30;50.63;;;15.70;55.10;;;;;;4967514;28;89001;-75
2023/03/09 00:09:09;;;;;;;70.25;50.17;;;15.70;55.20;;;;;;4965270;28;89138;-73
2023/03/09 00:11:35;;;;;;;69.45;49.67;;;15.70;55.20;;;;;;4991473;28;86935;-75
2023/03/09 00:14:01;;;;;;;68.85;49.50;;;15.60;55.20;;;;;;4976404;28;86976;-76
2023/03/09 00:16:28;;;;;;;70.38;50.00;;;15.60;55.40;;;;;;4976550;28;89031;-75
2023/03/09 00:18:57;;;;;;;71.35;50.20;;;15.60;55.40;;;;;;4977618;28;91461;-74
2023/03/09 00:21:38;;;;;;;70.57;49.95;;;15.60;55.50;;;;;;4987659;28;87502;-74
2023/03/09 00:24:05;;;;;;;69.97;49.58;;;15.50;55.50;;;;;;4971725;28;87465;-74
2023/03/09 00:26:32;;;;;;;70.03;50.03;;;15.50;55.50;;;;;;4990735;28;85802;-75
2023/03/09 00:28:58;;;;;;;70.45;50.30;;;15.50;55.50;;;;;;4981602;28;87767;-75
2023/03/09 00:31:24;;;;;;;69.80;49.55;;;15.60;55.50;;;;;;4969369;28;86121;-75
2023/03/09 00:33:50;;;;;;;69.88;49.90;;;15.50;55.40;;;;;;4974607;28;86025;-75
2023/03/09 00:36:17;;;;;;;69.88;50.08;;;15.60;55.50;;;;;;4979684;28;87919;-74
2023/03/09 00:38:43;;;;;;;69.97;49.97;;;15.60;55.30;;;;;;4983346;28;86610;-74
2023/03/09 00:41:09;;;;;;;70.85;49.92;;;15.60;55.50;;;;;;4977440;28;91286;-75
2023/03/09 00:43:35;;;;;;;70.10;49.92;;;15.60;55.30;;;;;;4977178;28;86772;-73
2023/03/09 00:46:00;;;;;;;69.78;49.63;;;15.60;55.20;;;;;;4975647;28;87710;-75
2023/03/09 00:48:26;;;;;;;69.35;49.67;;;15.60;55.40;;;;;;4998334;28;87227;-75
2023/03/09 00:50:52;;;;;;;70.20;49.63;;;15.50;55.30;;;;;;4976918;28;88705;-76
2023/03/09 00:53:17;;;;;;;69.97;49.78;;;15.50;55.40;;;;;;4978736;28;91278;-74
2023/03/09 00:55:43;;;;;;;71.43;50.10;;;15.50;55.30;;;;;;4976800;28;91087;-75
2023/03/09 00:58:10;;;;;;;70.25;50.15;;;15.60;55.30;;;;;;4983995;28;89043;-76
2023/03/09 01:00:37;;;;;;;69.95;49.47;;;15.60;55.30;;;;;;4983396;28;87364;-76
2023/03/09 01:03:03;;;;;;;70.07;49.63;;;15.60;55.00;;;;;;4977993;28;93526;-76
2023/03/09 01:05:28;;;;;;;70.03;49.40;;;15.60;55.00;;;;;;4989876;28;86364;-75
2023/03/09 01:07:54;;;;;;;70.03;49.50;;;15.70;54.90;;;;;;4980742;28;85432;-76
2023/03/09 01:10:20;;;;;;;71.20;49.95;;;15.70;54.80;;;;;;4976130;28;88436;-75
2023/03/09 01:12:46;;;;;;;70.40;49.60;;;15.70;54.80;;;;;;4978919;28;86433;-75
2023/03/09 01:15:12;;;;;;;69.78;49.30;;;15.70;54.80;;;;;;4987602;28;85787;-75
2023/03/09 01:17:38;;;;;;;70.43;49.63;;;15.60;54.90;;;;;;4991137;28;89585;-75
2023/03/09 01:20:05;;;;;;;70.10;49.45;;;15.60;55.00;;;;;;4972376;28;88469;-74
2023/03/09 01:22:31;;;;;;;70.35;49.50;;;15.70;55.00;;;;;;4977233;28;89489;-76
2023/03/09 01:24:56;;;;;;;70.93;49.58;;;15.70;54.80;;;;;;4988581;28;88763;-76
2023/03/09 01:27:22;;;;;;;71.70;49.67;;;15.70;54.80;;;;;;4985741;28;88838;-75
2023/03/09 01:29:47;;;;;;;70.88;49.33;;;15.70;54.90;;;;;;5001287;28;85129;-75
2023/03/09 01:32:13;;;;;;;70.40;49.80;;;15.70;54.70;;;;;;4980455;28;87047;-74
2023/03/09 01:34:39;;;;;;;69.90;48.97;;;15.70;54.70;;;;;;4983361;28;87347;-76
2023/03/09 01:37:05;;;;;;;70.97;49.38;;;15.70;54.70;;;;;;4982384;28;90890;-75
2023/03/09 01:39:30;;;;;;;71.63;49.58;;;15.80;54.50;;;;;;4965812;28;89531;-73
2023/03/09 01:41:57;;;;;;;69.88;49.17;;;15.80;54.60;;;;;;4991035;28;92827;-74
2023/03/09 01:44:22;;;;;;;71.63;49.50;;;15.80;54.50;;;;;;4983551;28;86525;-75
2023/03/09 01:46:49;;;;;;;70.40;49.22;;;15.90;54.30;;;;;;4986202;28;89550;-75
2023/03/09 01:49:21;;;;;;;70.68;49.20;;;15.90;54.30;;;;;;4988591;28;87554;-74
2023/03/09 01:51:51;;;;;;;70.32;49.30;;;15.80;54.30;;;;;;4990388;28;86797;-75
2023/03/09 01:54:25;;;;;;;70.78;49.20;;;15.80;54.60;;;;;;4972311;28;88416;-74
2023/03/09 01:56:55;;;;;;;72.60;49.10;;;15.80;54.50;;;;;;4981475;28;87693;-75
2023/03/09 01:59:25;;;;;;;71.57;49.25;;;15.80;54.40;;;;;;4975463;28;88693;-76
2023/03/09 02:01:51;;;;;;;70.15;48.92;;;15.90;54.40;;;;;;4984782;28;87535;-76
2023/03/09 02:04:23;;;;;;;70.35;48.92;;;15.90;54.30;;;;;;4981712;28;85785;-75
2023/03/09 02:06:49;;;;;;;69.97;49.20;;;15.90;54.20;;;;;;4989387;28;87063;-75
2023/03/09 02:09:41;;;;;;;69.65;49.08;;;16.00;54.10;;;;;;4986527;28;86193;-75
2023/03/09 02:12:09;;;;;;;72.00;48.90;;;16.00;54.00;;;;;;4965881;28;86579;-73
2023/03/09 02:14:35;;;;;;;71.10;49.17;;;15.90;54.10;;;;;;4994994;28;85815;-75
2023/03/09 02:17:01;;;;;;;71.25;49.40;;;15.90;54.30;;;;;;4983374;28;87909;-75
2023/03/09 02:20:07;;;;;;;70.95;49.30;;;15.90;54.30;;;;;;4988333;28;92410;-76
2023/03/09 02:22:38;;;;;;;71.65;49.53;;;15.90;54.30;;;;;;4970640;28;87232;-75
2023/03/09 02:25:09;;;;;;;69.90;49.40;;;15.90;54.20;;;;;;4992167;28;85959;-76
2023/03/09 02:27:35;;;;;;;70.95;49.85;;;15.90;54.10;;;;;;4972831;28;86366;-75
2023/03/09 02:30:02;;;;;;;71.22;50.05;;;15.90;54.20;;;;;;4983056;28;89011;-74
2023/03/09 02:32:31;;;;;;;71.43;49.90;;;15.80;54.30;;;;;;4975740;28;88872;-77
2023/03/09 02:34:57;;;;;;;71.85;49.72;;;15.80;54.30;;;;;;4956753;28;88631;-77
2023/03/09 02:37:35;;;;;;;72.95;50.50;;;15.90;54.30;;;;;;4972848;28;88334;-76
2023/03/09 02:40:23;;;;;;;71.95;50.13;;;15.80;54.40;;;;;;4986481;28;87274;-76
2023/03/09 02:42:50;;;;;;;70.13;49.78;;;15.90;54.20;;;;;;4988811;28;90349;-76
2023/03/09 02:45:19;;;;;;;71.43;49.63;;;15.90;54.20;;;;;;4990596;28;86783;-77
2023/03/09 02:47:46;;;;;;;72.05;50.05;;;15.80;54.30;;;;;;4955846;28;88015;-75
2023/03/09 02:50:11;;;;;;;72.80;49.70;;;15.80;54.40;;;;;;4973559;28;87219;-76
2023/03/09 02:52:37;;;;;;;70.20;49.67;;;15.90;54.20;;;;;;4989013;28;86353;-75
2023/03/09 02:55:04;;;;;;;69.88;49.53;;;15.80;54.40;;;;;;4979108;28;88207;-74
2023/03/09 02:57:30;;;;;;;69.28;49.28;;;15.80;54.30;;;;;;4980432;28;91257;-75
2023/03/09 02:59:55;;;;;;;71.30;49.35;;;15.80;54.30;;;;;;4984832;28;88539;-76
2023/03/09 03:02:21;;;;;;;70.20;49.30;;;15.90;54.30;;;;;;4973970;28;87955;-76
2023/03/09 03:04:47;;;;;;;72.63;49.63;;;16.00;54.20;;;;;;4958285;28;91866;-72
2023/03/09 03:07:12;;;;;;;70.95;49.58;;;15.90;54.30;;;;;;4983232;28;86382;-77
2023/03/09 03:09:38;;;;;;;71.20;49.05;;;15.80;54.30;;;;;;4972010;28;88213;-76
2023/03/09 03:12:04;;;;;;;72.15;49.28;;;15.90;54.30;;;;;;4964939;28;86876;-75
2023/03/09 03:14:29;;;;;;;71.70;49.33;;;15.80;54.40;;;;;;4999688;28;86699;-76
2023/03/09 03:16:55;;;;;;;69.35;48.85;;;15.80;54.40;;;;;;4978571;28;88373;-75
2023/03/09 03:19:21;;;;;;;72.25;49.30;;;15.90;54.40;;;;;;4991145;28;88596;-76
2023/03/09 03:21:48;;;;;;;70.97;48.83;;;15.90;54.30;;;;;;4987131;28;87704;-75
2023/03/09 03:24:14;;;;;;;70.20;48.97;;;15.90;54.30;;;;;;4995882;28;87681;-75
2023/03/09 03:26:40;;;;;;;69.78;48.78;;;15.90;54.30;;;;;;4993024;28;86174;-73
2023/03/09 03:29:06;;;;;;;72.68;48.95;;;15.90;54.30;;;;;;4987051;28;89254;-76
2023/03/09 03:31:33;;;;;;;69.38;48.75;;;15.80;54.30;;;;;;4984268;28;90441;-76
2023/03/09 03:33:59;;;;;;;70.65;49.05;;;15.90;54.20;;;;;;4983534;28;86454;-74
2023/03/09 03:36:25;;;;;;;69.88;48.55;;;15.90;54.30;;;;;;4991072;28;88608;-75
2023/03/09 03:38:50;;;;;;;72.10;49.58;;;15.90;54.30;;;;;;4977194;28;87248;-74
2023/03/09 03:41:16;;;;;;;71.75;48.85;;;15.90;54.20;;;;;;4979728;28;86850;-74
2023/03/09 03:43:42;;;;;;;70.45;48.78;;;15.80;54.30;;;;;;4982650;28;87231;-74
2023/03/09 03:46:07;;;;;;;70.53;48.58;;;15.80;55.10;;;;;;4984674;28;85856;-76
2023/03/09 03:48:33;;;;;;;70.35;48.35;;;15.80;54.50;;;;;;4958239;28;87533;-75
2023/03/09 03:50:59;;;;;;;70.07;48.42;;;15.90;54.50;;;;;;4983443;28;86045;-75
2023/03/09 03:53:24;;;;;;;70.28;48.72;;;15.90;54.40;;;;;;4993122;28;85578;-75
2023/03/09 03:55:50;;;;;;;74.35;49.25;;;15.90;54.40;;;;;;4988232;28;88911;-75
2023/03/09 03:58:16;;;;;;;71.40;48.88;;;16.00;54.30;;;;;;4983117;28;91067;-75
2023/03/09 04:00:41;;;;;;;70.95;48.80;;;16.00;54.30;;;;;;4985000;28;89429;-75
2023/03/09 04:03:07;;;;;;;70.25;49.05;;;16.00;54.40;;;;;;4970334;28;88059;-75
2023/03/09 04:05:33;;;;;;;73.55;48.97;;;16.00;54.60;;;;;;4982380;28;86616;-74
2023/03/09 04:07:58;;;;;;;71.05;49.03;;;15.90;54.70;;;;;;4975604;28;90907;-74
2023/03/09 04:10:24;;;;;;;70.32;48.63;;;15.90;55.30;;;;;;4986412;28;88127;-75
2023/03/09 04:12:51;;;;;;;71.43;48.83;;;15.90;54.60;;;;;;4989776;28;86521;-75
2023/03/09 04:15:17;;;;;;;70.70;48.50;;;16.00;54.50;;;;;;4980072;28;96300;-75
2023/03/09 04:17:43;;;;;;;69.70;48.65;;;16.00;54.50;;;;;;4960757;28;86883;-75
2023/03/09 04:20:10;;;;;;;71.50;48.67;;;16.00;54.50;;;;;;4989529;28;88190;-74
2023/03/09 04:22:35;;;;;;;71.75;48.65;;;15.90;54.50;;;;;;4983640;28;87233;-75
2023/03/09 04:25:01;;;;;;;68.72;48.55;;;16.00;54.50;;;;;;4977199;28;86605;-75
2023/03/09 04:27:26;;;;;;;70.32;48.65;;;15.90;54.40;;;;;;4976816;28;85650;-75
2023/03/09 04:29:52;;;;;;;71.40;48.60;;;16.00;54.50;;;;;;4990158;28;87568;-74
2023/03/09 04:32:18;;;;;;;71.40;48.42;;;15.90;54.50;;;;;;4974977;28;86530;-74
2023/03/09 04:34:43;;;;;;;71.88;48.63;;;15.90;54.70;;;;;;4985807;28;86734;-75
2023/03/09 04:37:11;;;;;;;70.45;48.50;;;15.90;54.70;;;;;;4986390;28;86121;-75
2023/03/09 04:39:37;;;;;;;70.15;48.53;;;15.90;54.90;;;;;;4976504;28;87329;-75
2023/03/09 04:42:02;;;;;;;69.68;48.58;;;16.00;54.80;;;;;;4987482;28;87536;-75
2023/03/09 04:44:29;;;;;;;74.55;48.55;;;16.00;54.70;;;;;;4982161;28;88792;-74
2023/03/09 04:46:54;;;;;;;71.90;48.63;;;16.00;54.80;;;;;;4986202;28;89041;-74
2023/03/09 04:49:20;;;;;;;73.40;49.28;;;16.00;54.80;;;;;;4947225;28;87488;-74
2023/03/09 04:51:46;;;;;;;73.95;50.75;;;15.80;55.20;;;;;;4961068;28;87526;-77
2023/03/09 04:54:11;;;;;;;70.82;49.65;;;15.70;55.40;;;;;;4972188;28;87440;-74
2023/03/09 04:56:37;;;;;;;73.60;50.90;;;15.80;55.40;;;;;;4984864;28;86857;-74
2023/03/09 04:59:02;;;;;;;74.97;50.08;;;15.80;55.40;;;;;;4979744;28;88293;-74
2023/03/09 05:01:28;;;;;;;72.78;49.72;;;15.90;55.10;;;;;;4962473;28;88564;-76
2023/03/09 05:03:54;;;;;;;71.97;50.65;;;15.90;55.10;;;;;;4978346;28;85677;-74
2023/03/09 05:06:19;;;;;;;73.25;50.20;;;15.80;55.10;;;;;;4979236;28;85884;-75
2023/03/09 05:08:45;;;;;;;72.40;50.83;;;15.80;55.30;;;;;;4981784;28;86132;-74
2023/03/09 05:11:11;;;;;;;73.38;50.35;;;15.80;55.40;;;;;;4991087;28;88407;-75
2023/03/09 05:13:36;;;;;;;73.72;50.92;;;15.80;55.10;;;;;;4980659;28;89074;-76
2023/03/09 05:16:07;;;;;;;71.90;50.28;;;15.80;55.40;;;;;;4996233;28;85863;-77
2023/03/09 05:18:34;;;;;;;76.00;51.03;;;15.80;55.20;;;;;;4972077;28;85588;-76
2023/03/09 05:21:03;;;;;;;71.90;50.97;;;15.70;55.20;;;;;;4976296;28;88408;-77
2023/03/09 05:23:29;;;;;;;76.85;50.67;;;15.70;55.20;;;;;;4977360;28;92287;-76
2023/03/09 05:25:59;;;;;;;76.47;51.05;;;15.70;55.30;;;;;;4986582;28;85386;-75
2023/03/09 05:28:25;;;;;;;80.18;51.45;;;15.80;55.40;;;;;;4989160;28;87618;-75
2023/03/09 05:30:51;;;;;;;77.10;51.22;;;15.80;55.40;;;;;;4985688;28;91645;-77
2023/03/09 05:33:17;;;;;;;74.88;50.80;;;15.60;55.50;;;;;;4987022;28;87386;-76
2023/03/09 05:35:43;;;;;;;76.20;51.63;;;15.70;55.40;;;;;;4961600;28;87342;-77
2023/03/09 05:38:09;;;;;;;76.30;51.22;;;15.60;55.60;;;;;;4974306;28;87734;-76
2023/03/09 05:40:35;;;;;;;73.82;51.03;;;15.60;55.50;;;;;;4980831;28;88216;-76
2023/03/09 05:43:02;;;;;;;77.22;51.63;;;15.60;55.70;;;;;;4981977;28;89659;-74
2023/03/09 05:45:27;;;;;;;78.53;51.50;;;15.50;55.80;;;;;;4995385;28;85659;-73
2023/03/09 05:47:53;;;;;;;74.32;50.90;;;15.40;56.40;;;;;;4988795;28;86909;-76
2023/03/09 05:50:18;;;;;;;75.70;51.53;;;15.40;56.00;;;;;;4983095;28;86478;-76
2023/03/09 05:52:44;;;;;;;73.20;51.83;;;15.40;56.00;;;;;;4979972;28;89057;-76
2023/03/09 05:55:10;;;;;;;75.05;51.78;;;15.40;55.90;;;;;;4971324;28;88808;-76
2023/03/09 05:57:37;;;;;;;72.28;51.47;;;15.40;56.00;;;;;;4984213;28;86976;-75
2023/03/09 06:00:04;;;;;;;73.38;51.47;;;15.30;56.00;;;;;;4977950;28;86397;-77
2023/03/09 06:02:30;;;;;;;72.63;50.78;;;15.30;56.00;;;;;;4989750;28;95426;-77
2023/03/09 06:04:55;;;;;;;73.78;51.28;;;15.30;56.20;;;;;;4975891;28;86156;-77
2023/03/09 06:07:21;;;;;;;72.57;50.83;;;15.30;56.20;;;;;;4983308;28;85372;-81
2023/03/09 06:09:47;;;;;;;73.95;51.97;;;15.30;56.30;;;;;;4969687;28;87019;-78
2023/03/09 06:12:12;;;;;;;78.43;52.10;;;15.40;56.20;;;;;;4986160;28;86636;-78
2023/03/09 06:14:38;;;;;;;73.35;51.38;;;15.40;56.00;;;;;;4989332;28;85740;-82
2023/03/09 06:17:04;;;;;;;75.57;51.92;;;15.40;56.10;;;;;;4985419;28;89812;-81
2023/03/09 06:19:30;;;;;;;72.53;51.05;;;15.40;56.10;;;;;;4970837;28;85876;-82
2023/03/09 06:21:55;;;;;;;72.40;50.88;;;15.40;56.20;;;;;;4985401;28;87913;-80
2023/03/09 06:24:21;;;;;;;73.60;52.10;;;15.40;56.40;;;;;;4976647;28;88118;-75
2023/03/09 06:26:46;;;;;;;74.85;52.28;;;15.40;56.30;;;;;;4985009;28;86149;-79
2023/03/09 06:29:12;;;;;;;74.57;51.10;;;15.30;56.80;;;;;;4993734;28;89002;-79
2023/03/09 06:31:38;;;;;;;72.78;51.10;;;15.20;57.10;;;;;;4988115;28;86284;-75
2023/03/09 06:34:03;;;;;;;76.18;52.65;;;15.20;57.20;;;;;;4983068;28;85509;-73
2023/03/09 06:36:29;;;;;;;74.43;52.33;;;15.30;57.40;;;;;;4976488;28;91773;-76
2023/03/09 06:38:55;;;;;;;77.10;52.75;;;15.20;57.60;;;;;;4979506;28;86774;-75
2023/03/09 06:41:29;;;;;;;77.15;53.20;;;15.50;58.20;;;;;;4974198;28;88170;-74
2023/03/09 06:43:55;;;;;;;74.57;51.28;;;15.70;58.60;;;;;;4986677;28;85498;-76
2023/03/09 06:46:21;;;;;;;75.30;51.70;;;15.80;58.30;;;;;;4978270;28;86680;-77
2023/03/09 06:48:46;;;;;;;76.75;52.22;;;15.90;56.90;;;;;;5006353;28;85591;-75
2023/03/09 06:51:12;;;;;;;75.53;51.55;;;16.00;56.30;;;;;;4988663;28;85634;-76
2023/03/09 06:53:38;;;;;;;73.35;50.65;;;16.00;56.70;;;;;;4985418;28;87798;-80
2023/03/09 06:56:03;;;;;;;73.57;51.45;;;16.00;56.00;;;;;;4995951;28;85397;-79
2023/03/09 06:58:30;;;;;;;72.03;51.15;;;16.00;55.90;;;;;;4978123;28;85458;-80
2023/03/09 07:00:56;;;;;;;76.38;51.65;;;16.00;55.80;;;;;;4971422;28;87336;-79
2023/03/09 07:03:22;;;;;;;79.65;53.70;;;16.00;55.70;;;;;;4982144;28;91141;-81
2023/03/09 07:05:48;;;;;;;75.20;52.13;;;16.00;55.80;;;;;;4961151;28;86498;-77
2023/03/09 07:08:14;;;;;;;76.35;52.53;;;16.00;56.40;;;;;;4947562;28;85751;-78
2023/03/09 07:10:39;;;;;;;74.13;51.78;;;16.00;56.60;;;;;;4946423;28;87967;-80
2023/03/09 07:13:10;;;;;;;79.25;52.25;;;16.10;56.80;;;;;;4949617;28;86882;-77
2023/03/09 07:15:36;;;;;;;72.82;51.25;;;16.10;56.80;;;;;;4948943;28;86351;-77
2023/03/09 07:18:02;;;;;;;75.20;52.15;;;16.20;56.80;;;;;;4940497;28;86271;-72
2023/03/09 07:20:27;;;;;;;78.20;52.10;;;16.30;56.60;;;;;;4920108;28;88799;-79
2023/03/09 07:22:53;;;;;;;78.03;53.53;;;16.30;56.70;;;;;;4928213;28;90383;-77
2023/03/09 07:25:18;;;;;;;75.35;52.00;;;16.30;56.60;;;;;;4934672;28;86366;-77
2023/03/09 07:27:44;;;;;;;80.50;54.28;;;16.30;56.70;;;;;;4941125;28;91576;-78
2023/03/09 07:30:10;;;;;;;78.53;52.85;;;16.30;56.70;;;;;;4922362;28;87147;-76
2023/03/09 07:32:36;;;;;;;84.63;52.70;;;16.30;56.70;;;;;;4936339;28;86477;-78
2023/03/09 07:35:02;;;;;;;78.97;53.15;;;16.40;56.60;;;;;;4912851;28;88684;-76
2023/03/09 07:37:27;;;;;;;80.50;54.22;;;16.40;56.20;;;;;;4940888;28;89683;-82
2023/03/09 07:39:53;;;;;;;77.60;53.05;;;16.40;56.20;;;;;;4937081;28;91297;-76
2023/03/09 07:42:19;;;;;;;77.93;53.28;;;16.40;56.10;;;;;;4976111;28;85862;-81
2023/03/09 07:44:44;;;;;;;76.40;52.60;;;16.50;56.10;;;;;;4989802;28;84783;-78
2023/03/09 07:47:10;;;;;;;76.72;52.92;;;16.50;56.00;;;;;;4952172;28;87586;-74
2023/03/09 07:49:35;;;;;;;81.63;53.42;;;16.40;56.10;;;;;;4975132;28;89591;-73
2023/03/09 07:52:02;;;;;;;77.38;52.97;;;16.30;56.30;;;;;;4990104;28;88177;-77
2023/03/09 07:54:27;;;;;;;75.50;52.53;;;16.30;56.00;;;;;;4992473;28;85944;-72
2023/03/09 07:56:54;;;;;;;77.68;53.05;;;16.30;55.80;;;;;;4981958;28;87839;-79
2023/03/09 07:59:20;;;;;;;77.70;52.80;;;16.40;55.80;;;;;;4987129;27;91680;-80
2023/03/09 08:01:46;;;;;;;76.90;52.78;;;16.40;55.70;;;;;;4958680;28;88686;-78
2023/03/09 08:04:13;;;;;;;79.00;54.97;;;16.50;55.70;;;;;;4991098;28;86329;-77
2023/03/09 08:06:40;;;;;;;78.15;52.42;;;16.60;55.50;;;;;;4972050;28;92603;-71
2023/03/09 08:09:12;;;;;;;78.50;54.28;;;16.60;55.60;;;;;;4982889;28;92107;-78
2023/03/09 08:11:38;;;;;;;79.82;54.33;;;16.60;55.50;;;;;;4985115;28;86115;-77
2023/03/09 08:14:03;;;;;;;81.18;54.20;;;16.60;55.40;;;;;;4981861;28;85794;-79
2023/03/09 08:16:29;;;;;;;77.15;53.55;;;16.70;55.50;;;;;;4966900;28;86158;-80
2023/03/09 08:18:55;;;;;;;77.28;52.85;;;16.70;55.40;;;;;;4988821;28;85095;-76
2023/03/09 08:21:21;;;;;;;78.13;53.35;;;16.70;55.20;;;;;;4989902;28;87105;-80
2023/03/09 08:23:47;;;;;;;79.35;53.95;;;16.80;55.10;;;;;;4984669;28;86204;-79
2023/03/09 08:26:17;;;;;;;79.00;54.85;;;16.70;55.10;;;;;;4987559;28;86331;-79
2023/03/09 08:28:43;;;;;;;77.93;53.55;;;16.70;55.00;;;;;;4991021;28;85418;-76
2023/03/09 08:31:11;;;;;;;79.20;53.15;;;16.80;55.00;;;;;;4978280;28;87073;-75
2023/03/09 08:33:37;;;;;;;82.82;54.00;;;16.80;54.80;;;;;;4987606;28;85763;-79
2023/03/09 08:36:15;;;;;;;77.55;53.53;;;16.80;54.80;;;;;;4985299;28;85431;-77
2023/03/09 08:38:42;;;;;;;78.40;53.58;;;16.80;54.90;;;;;;4978352;28;86028;-74
2023/03/09 08:41:07;;;;;;;76.35;51.92;;;16.80;54.90;;;;;;4979166;28;86663;-77
2023/03/09 08:43:33;;;;;;;79.97;53.65;;;16.80;55.10;;;;;;4978158;28;86845;-75
2023/03/09 08:45:59;;;;;;;77.97;52.90;;;16.80;54.90;;;;;;4984058;28;87862;-78
2023/03/09 08:48:24;;;;;;;80.68;53.50;;;16.80;55.50;;;;;;4985414;28;87665;-81
2023/03/09 08:50:50;;;;;;;77.65;52.97;;;16.90;54.80;;;;;;4986667;28;86324;-75
2023/03/09 08:53:18;;;;;;;77.80;51.90;;;16.90;54.90;;;;;;4973355;28;86030;-79
2023/03/09 08:55:44;;;;;;;79.20;53.40;;;16.90;54.80;;;;;;4992181;28;89853;-78
2023/03/09 08:58:09;;;;;;;79.40;52.28;;;16.90;54.50;;;;;;4977853;28;88072;-78
2023/03/09 09:00:35;;;;;;;78.55;52.60;;;17.00;54.50;;;;;;4990768;28;86015;-74
2023/03/09 09:03:00;;;;;;;75.15;52.10;;;17.00;54.70;;;;;;4992800;28;86585;-78
2023/03/09 09:05:26;;;;;;;77.32;52.85;;;16.90;54.80;;;;;;4985689;28;86050;-79
2023/03/09 09:07:52;;;;;;;79.35;53.15;;;16.90;54.80;;;;;;4989823;28;88444;-76
2023/03/09 09:10:17;;;;;;;77.93;52.50;;;16.90;54.70;;;;;;4965147;28;85997;-77
2023/03/09 09:12:43;;;;;;;79.25;52.45;;;16.90;54.80;;;;;;4987886;28;88773;-78
2023/03/09 09:15:10;;;;;;;77.10;51.40;;;17.00;54.70;;;;;;4979426;28;90048;-76
2023/03/09 09:17:36;;;;;;;78.45;51.50;;;17.10;54.60;;;;;;4962672;28;88683;-79
2023/03/09 09:20:03;;;;;;;75.97;51.53;;;17.20;54.60;;;;;;4977173;28;91322;-78
2023/03/09 09:22:29;;;;;;;76.57;51.55;;;17.20;54.70;;;;;;4983945;28;90963;-82
2023/03/09 09:24:55;;;;;;;76.50;51.75;;;17.30;54.70;;;;;;4983307;28;89125;-78
2023/03/09 09:27:20;;;;;;;75.75;51.53;;;17.40;54.20;;;;;;4982227;28;86648;-80
2023/03/09 09:29:46;;;;;;;75.03;51.00;;;17.40;54.00;;;;;;4998636;28;87341;-78
2023/03/09 09:32:12;;;;;;;78.07;51.00;;;17.50;54.00;;;;;;4945586;28;88506;-79
2023/03/09 09:34:38;;;;;;;74.90;51.10;;;17.50;54.00;;;;;;4964509;28;86984;-77
2023/03/09 09:37:05;;;;;;;77.47;51.22;;;17.60;54.10;;;;;;4982074;28;88617;-77
2023/03/09 09:39:32;;;;;;;74.85;50.70;;;17.80;54.00;;;;;;4960529;28;87565;-80
2023/03/09 09:42:24;;;;;;;76.82;51.00;;;17.80;53.80;;;;;;4972712;28;90253;-79
2023/03/09 09:44:51;;;;;;;78.07;51.58;;;17.90;53.60;;;;;;4975396;28;87241;-79
2023/03/09 09:47:22;;;;;;;76.55;51.38;;;18.00;53.70;;;;;;4971018;28;86061;-80
2023/03/09 09:49:51;;;;;;;75.22;50.83;;;18.10;53.70;;;;;;4990352;28;85841;-76
2023/03/09 09:53:05;;;;;;;75.70;51.40;;;18.00;53.80;;;;;;4967451;28;88681;-76
2023/03/09 09:55:39;;;;;;;76.05;50.83;;;18.10;53.90;;;;;;4967694;28;88680;-80
2023/03/09 09:58:30;;;;;;;75.28;50.97;;;18.10;53.50;;;;;;4971325;28;90755;-80
2023/03/09 10:01:00;;;;;;;78.50;50.90;;;18.20;53.40;;;;;;4981653;28;86327;-79
2023/03/09 10:03:32;;;;;;;77.32;50.92;;;18.30;53.40;;;;;;4960592;28;90713;-78
2023/03/09 10:06:23;;;;;;;75.45;50.58;;;18.30;53.30;;;;;;4946433;28;87179;-78
2023/03/09 10:09:04;;;;;;;77.80;50.42;;;18.30;53.10;;;;;;4971577;28;86969;-76
2023/03/09 10:11:35;;;;;;;75.43;50.33;;;18.30;53.50;;;;;;4958239;28;89256;-76
2023/03/09 10:14:17;;;;;;;76.85;50.75;;;18.30;53.30;;;;;;4968911;28;86513;-81
2023/03/09 10:16:51;;;;;;;77.57;50.55;;;18.40;53.40;;;;;;4983644;28;86346;-79
2023/03/09 10:19:20;;;;;;;78.35;50.75;;;18.40;53.40;;;;;;4991879;28;86748;-76
2023/03/09 10:21:58;;;;;;;76.95;50.95;;;18.40;53.30;;;;;;4983820;28;90528;-80
2023/03/09 10:24:31;;;;;;;75.50;50.63;;;18.50;53.20;;;;;;4975982;27;87116;-77
2023/03/09 10:27:02;;;;;;;76.93;50.42;;;18.50;53.30;;;;;;4972008;28;86958;-76
2023/03/09 10:29:56;;;;;;;75.32;50.50;;;18.60;53.20;;;;;;4990594;28;87131;-76
2023/03/09 10:32:37;;;;;;;75.82;50.60;;;18.70;53.10;;;;;;4981994;28;91029;-76
2023/03/09 10:35:32;;;;;;;76.63;50.60;;;18.70;53.10;;;;;;4974713;28;87571;-74
2023/03/09 10:37:59;;;;;;;74.90;50.35;;;18.70;53.00;;;;;;4976740;28;89956;-76
2023/03/09 10:40:46;;;;;;;77.40;50.78;;;18.70;52.90;;;;;;4987299;28;86633;-76
2023/03/09 10:43:33;;;;;;;76.15;50.72;;;18.70;53.00;;;;;;4976194;28;86708;-74
2023/03/09 10:46:15;;;;;;;75.13;50.33;;;18.70;52.90;;;;;;4989506;28;92068;-75
2023/03/09 10:48:42;;;;;;;75.90;50.42;;;18.80;52.80;;;;;;4982849;28;86113;-73
2023/03/09 10:51:30;;;;;;;76.75;50.70;;;18.80;53.00;;;;;;4983240;28;86087;-78
2023/03/09 10:53:57;;;;;;;76.60;50.55;;;18.80;52.90;;;;;;4972951;28;86715;-78
2023/03/09 10:56:23;;;;;;;77.75;50.55;;;18.90;52.70;;;;;;4968558;28;87768;-77
2023/03/09 10:59:07;;;;;;;77.82;50.50;;;18.90;52.70;;;;;;5000439;22;90130;-47
2023/03/09 11:01:37;;;;;;;78.95;50.85;;;18.90;52.80;;;;;;5003703;27;91323;-46
2023/03/09 11:04:23;;;;;;;78.38;50.95;;;19.00;52.80;;;;;;4992989;27;88073;-45
2023/03/09 11:06:53;;;;;;;79.47;51.00;;;19.10;52.80;;;;;;5003234;27;86992;-50
2023/03/09 11:09:44;;;;;;;79.63;51.10;;;19.10;53.10;;;;;;5003518;27;86072;-45
2023/03/09 11:12:15;;;;;;;77.93;50.83;;;19.10;53.50;;;;;;4989106;27;91221;-47
2023/03/09 11:14:45;;;;;;;79.18;51.30;;;19.10;53.40;;;;;;4998061;27;89242;-45
2023/03/09 11:17:35;;;;;;;79.18;50.65;;;19.10;53.10;;;;;;5009198;27;86928;-47
2023/03/09 11:20:29;;;;;;;77.88;50.85;;;19.10;53.10;;;;;;5003569;27;87127;-48
2023/03/09 11:22:59;;;;;;;78.47;50.95;;;19.10;53.00;;;;;;4976223;27;89029;-48
2023/03/09 11:25:51;;;;;;;78.73;51.37;;;19.10;53.00;;;;;;5014645;27;86115;-47
2023/03/09 11:28:47;;;;;;;81.50;50.92;;;19.30;52.90;;;;;;4998611;27;85908;-48
2023/03/09 11:31:19;;;;;;;78.75;51.13;;;19.30;52.70;;;;;;4994860;27;87978;-49
2023/03/09 11:33:48;;;;;;;82.20;51.25;;;19.40;52.90;;;;;;4991649;27;90587;-50
2023/03/09 11:36:18;;;;;;;78.50;50.90;;;19.40;52.90;;;;;;4991185;27;87651;-52
2023/03/09 11:38:45;;;;;;;77.80;50.83;;;19.50;53.00;;;;;;4984861;27;86891;-51
2023/03/09 11:41:21;;;;;;;79.72;50.97;;;19.50;52.90;;;;;;5003708;27;87931;-48
2023/03/09 11:43:51;;;;;;;78.93;50.58;;;19.60;52.80;;;;;;5002461;27;88876;-47
2023/03/09 11:46:17;;;;;;;78.90;51.10;;;19.60;52.70;;;;;;4996876;27;87165;-48
2023/03/09 11:48:52;;;;;;;79.18;51.05;;;19.70;52.70;;;;;;4992907;27;92094;-49
2023/03/09 11:51:51;;;;;;;79.07;51.13;;;19.60;52.60;;;;;;4990672;27;88266;-48
2023/03/09 11:54:42;;;;;;;79.78;51.17;;;19.70;52.70;;;;;;4950809;27;86953;-48
2023/03/09 11:57:19;;;;;;;79.78;50.88;;;19.70;52.70;;;;;;4997344;27;89768;-46
2023/03/09 11:59:57;;;;;;;81.40;51.33;;;19.80;52.60;;;;;;5004117;27;87545;-49
2023/03/09 12:02:55;;;;;;;81.55;51.15;;;19.80;52.40;;;;;;5007694;27;88677;-47
2023/03/09 12:05:24;;;;;;;80.90;50.97;;;19.80;52.20;;;;;;4996882;27;90555;-48
2023/03/09 12:07:53;;;;;;;80.45;51.42;;;19.70;52.00;;;;;;4996641;27;87963;-51
2023/03/09 12:10:27;;;;;;;81.85;51.35;;;19.70;52.00;;;;;;4990333;27;85489;-46
2023/03/09 12:13:03;;;;;;;82.50;51.70;;;19.80;52.20;;;;;;4998344;27;87615;-49
2023/03/09 12:15:45;;;;;;;82.47;51.63;;;19.80;52.50;;;;;;5001630;27;87448;-50
2023/03/09 12:18:21;;;;;;;80.07;51.65;;;19.80;52.10;;;;;;5000832;27;88386;-44
2023/03/09 12:20:53;;;;;;;78.70;51.05;;;19.90;52.00;;;;;;5001705;27;87273;-48
2023/03/09 12:23:36;;;;;;;80.72;51.40;;;19.90;52.20;;;;;;4992461;27;86929;-47
2023/03/09 12:26:11;;;;;;;79.75;51.58;;;19.80;52.90;;;;;;4987998;27;92223;-51
2023/03/09 12:28:37;;;;;;;80.38;51.22;;;19.90;52.40;;;;;;4997106;27;85574;-44
2023/03/09 12:31:05;;;;;;;79.57;51.58;;;19.90;52.40;;;;;;4994787;27;91793;-49
2023/03/09 12:33:43;;;;;;;81.95;51.40;;;19.90;52.40;;;;;;4995589;27;86833;-49
2023/03/09 12:36:27;;;;;;;79.53;51.45;;;20.00;52.30;;;;;;4987855;27;87751;-51
2023/03/09 12:39:33;;;;;;;81.18;51.55;;;20.00;52.20;;;;;;5006425;27;91667;-55